sensor_id;sensor_type;location;lat;lon;timestamp;temperature;humidity
12726;DHT22;6427;49.754;6.106;2024-01-30T00:01:05;4.80;99.90
12726;DHT22;6427;49.754;6.106;2024-01-30T00:03:33;4.70;99.90
12726;DHT22;6427;49.754;6.106;2024-01-30T00:06:00;4.60;99.90
12726;DHT22;6427;49.754;6.106;2024-01-30T00:08:28;4.60;99.90
12726;DHT22;6427;49.754;6.106;2024-01-30T00:10:55;4.50;99.90
12726;DHT22;6427;49.754;6.106;2024-01-30T00:13:23;4.50;99.90
12726;DHT22;6427;49.754;6.106;2024-01-30T00:15:51;4.40;99.90
12726;DHT22;6427;49.754;6.106;2024-01-30T00:18:18;4.40;99.90
12726;DHT22;6427;49.754;6.106;2024-01-30T00:20:46;4.30;99.90
12726;DHT22;6427;49.754;6.106;2024-01-30T00:23:13;4.30;99.90
12726;DHT22;6427;49.754;6.106;2024-01-30T00:25:42;4.30;99.90
12726;DHT22;6427;49.754;6.106;2024-01-30T00:28:09;4.20;99.90
12726;DHT22;6427;49.754;6.106;2024-01-30T00:30:38;4.20;99.90
12726;DHT22;6427;49.754;6.106;2024-01-30T00:33:05;4.20;99.90
12726;DHT22;6427;49.754;6.106;2024-01-30T00:35:33;4.20;99.90
12726;DHT22;6427;49.754;6.106;2024-01-30T00:38:01;4.40;99.90
12726;DHT22;6427;49.754;6.106;2024-01-30T00:40:28;4.40;99.90
12726;DHT22;6427;49.754;6.106;2024-01-30T00:42:56;4.30;99.90
12726;DHT22;6427;49.754;6.106;2024-01-30T00:45:23;4.60;99.90
12726;DHT22;6427;49.754;6.106;2024-01-30T00:47:51;4.50;99.90
12726;DHT22;6427;49.754;6.106;2024-01-30T00:50:19;4.40;99.90
12726;DHT22;6427;49.754;6.106;2024-01-30T00:52:47;4.60;99.90
12726;DHT22;6427;49.754;6.106;2024-01-30T00:55:14;4.50;99.90
12726;DHT22;6427;49.754;6.106;2024-01-30T00:57:42;4.50;99.90
12726;DHT22;6427;49.754;6.106;2024-01-30T01:00:10;4.70;99.90
12726;DHT22;6427;49.754;6.106;2024-01-30T01:02:37;4.50;99.90
12726;DHT22;6427;49.754;6.106;2024-01-30T01:05:05;4.40;99.90
12726;DHT22;6427;49.754;6.106;2024-01-30T01:07:33;4.30;99.90
12726;DHT22;6427;49.754;6.106;2024-01-30T01:10:00;4.50;99.90
12726;DHT22;6427;49.754;6.106;2024-01-30T01:12:28;4.40;99.90
12726;DHT22;6427;49.754;6.106;2024-01-30T01:14:55;4.30;99.90
12726;DHT22;6427;49.754;6.106;2024-01-30T01:17:24;4.40;99.90
12726;DHT22;6427;49.754;6.106;2024-01-30T01:19:52;4.20;99.90
12726;DHT22;6427;49.754;6.106;2024-01-30T01:22:20;4.20;99.90
12726;DHT22;6427;49.754;6.106;2024-01-30T01:24:47;4.10;99.90
12726;DHT22;6427;49.754;6.106;2024-01-30T01:27:15;4.40;99.90
12726;DHT22;6427;49.754;6.106;2024-01-30T01:29:44;4.10;99.90
12726;DHT22;6427;49.754;6.106;2024-01-30T01:32:12;4.10;99.90
12726;DHT22;6427;49.754;6.106;2024-01-30T01:34:39;4.00;99.90
12726;DHT22;6427;49.754;6.106;2024-01-30T01:37:07;4.30;99.90
12726;DHT22;6427;49.754;6.106;2024-01-30T01:39:34;4.20;99.90
12726;DHT22;6427;49.754;6.106;2024-01-30T01:42:02;4.10;99.90
12726;DHT22;6427;49.754;6.106;2024-01-30T01:44:30;4.00;99.90
12726;DHT22;6427;49.754;6.106;2024-01-30T01:46:57;3.90;99.90
12726;DHT22;6427;49.754;6.106;2024-01-30T01:49:26;4.10;99.90
12726;DHT22;6427;49.754;6.106;2024-01-30T01:51:54;4.10;99.90
12726;DHT22;6427;49.754;6.106;2024-01-30T01:54:22;4.20;99.90
12726;DHT22;6427;49.754;6.106;2024-01-30T01:56:49;4.20;99.90
12726;DHT22;6427;49.754;6.106;2024-01-30T01:59:17;4.10;99.90
12726;DHT22;6427;49.754;6.106;2024-01-30T02:01:44;3.90;99.90
12726;DHT22;6427;49.754;6.106;2024-01-30T02:04:13;3.80;99.90
12726;DHT22;6427;49.754;6.106;2024-01-30T02:06:40;3.80;99.90
12726;DHT22;6427;49.754;6.106;2024-01-30T02:09:09;4.00;99.90
12726;DHT22;6427;49.754;6.106;2024-01-30T02:11:36;3.90;99.90
12726;DHT22;6427;49.754;6.106;2024-01-30T02:14:04;3.80;99.90
12726;DHT22;6427;49.754;6.106;2024-01-30T02:16:32;3.80;99.90
12726;DHT22;6427;49.754;6.106;2024-01-30T02:18:59;3.70;99.90
12726;DHT22;6427;49.754;6.106;2024-01-30T02:21:27;3.60;99.90
12726;DHT22;6427;49.754;6.106;2024-01-30T02:23:54;3.60;99.90
12726;DHT22;6427;49.754;6.106;2024-01-30T02:26:22;3.50;99.90
12726;DHT22;6427;49.754;6.106;2024-01-30T02:28:50;4.00;99.90
12726;DHT22;6427;49.754;6.106;2024-01-30T02:31:18;4.00;99.90
12726;DHT22;6427;49.754;6.106;2024-01-30T02:33:45;3.80;99.90
12726;DHT22;6427;49.754;6.106;2024-01-30T02:36:13;3.70;99.90
12726;DHT22;6427;49.754;6.106;2024-01-30T02:38:41;3.60;99.90
12726;DHT22;6427;49.754;6.106;2024-01-30T02:41:08;3.50;99.90
12726;DHT22;6427;49.754;6.106;2024-01-30T02:43:36;3.80;99.90
12726;DHT22;6427;49.754;6.106;2024-01-30T02:46:03;3.70;99.90
12726;DHT22;6427;49.754;6.106;2024-01-30T02:48:32;3.50;99.90
12726;DHT22;6427;49.754;6.106;2024-01-30T02:50:59;3.50;99.90
12726;DHT22;6427;49.754;6.106;2024-01-30T02:53:28;3.70;99.90
12726;DHT22;6427;49.754;6.106;2024-01-30T02:55:56;3.70;99.90
12726;DHT22;6427;49.754;6.106;2024-01-30T02:58:24;3.60;99.90
12726;DHT22;6427;49.754;6.106;2024-01-30T03:00:52;3.90;99.90
12726;DHT22;6427;49.754;6.106;2024-01-30T03:03:20;3.80;99.90
12726;DHT22;6427;49.754;6.106;2024-01-30T03:05:48;3.80;99.90
12726;DHT22;6427;49.754;6.106;2024-01-30T03:08:16;3.90;99.90
12726;DHT22;6427;49.754;6.106;2024-01-30T03:10:45;3.80;99.90
12726;DHT22;6427;49.754;6.106;2024-01-30T03:13:12;3.80;99.90
12726;DHT22;6427;49.754;6.106;2024-01-30T03:15:41;3.60;99.90
12726;DHT22;6427;49.754;6.106;2024-01-30T03:18:09;3.60;99.90
12726;DHT22;6427;49.754;6.106;2024-01-30T03:20:37;3.60;99.90
12726;DHT22;6427;49.754;6.106;2024-01-30T03:23:05;3.80;99.90
12726;DHT22;6427;49.754;6.106;2024-01-30T03:25:33;3.70;99.90
12726;DHT22;6427;49.754;6.106;2024-01-30T03:28:02;3.60;99.90
12726;DHT22;6427;49.754;6.106;2024-01-30T03:30:29;3.60;99.90
12726;DHT22;6427;49.754;6.106;2024-01-30T03:32:57;3.50;99.90
12726;DHT22;6427;49.754;6.106;2024-01-30T03:35:24;3.50;99.90
12726;DHT22;6427;49.754;6.106;2024-01-30T03:37:52;3.40;99.90
12726;DHT22;6427;49.754;6.106;2024-01-30T03:40:20;3.40;99.90
12726;DHT22;6427;49.754;6.106;2024-01-30T03:42:47;3.30;99.90
12726;DHT22;6427;49.754;6.106;2024-01-30T03:45:15;3.30;99.90
12726;DHT22;6427;49.754;6.106;2024-01-30T03:47:43;3.20;99.90
12726;DHT22;6427;49.754;6.106;2024-01-30T03:50:10;3.20;99.90
12726;DHT22;6427;49.754;6.106;2024-01-30T03:52:38;3.20;99.90
12726;DHT22;6427;49.754;6.106;2024-01-30T03:55:05;3.20;99.90
12726;DHT22;6427;49.754;6.106;2024-01-30T03:57:33;3.20;99.90
12726;DHT22;6427;49.754;6.106;2024-01-30T04:00:00;3.10;99.90
12726;DHT22;6427;49.754;6.106;2024-01-30T04:02:28;3.40;99.90
12726;DHT22;6427;49.754;6.106;2024-01-30T04:04:56;3.70;99.90
12726;DHT22;6427;49.754;6.106;2024-01-30T04:07:23;3.60;99.90
12726;DHT22;6427;49.754;6.106;2024-01-30T04:09:51;3.50;99.90
12726;DHT22;6427;49.754;6.106;2024-01-30T04:12:18;3.40;99.90
12726;DHT22;6427;49.754;6.106;2024-01-30T04:14:46;3.30;99.90
12726;DHT22;6427;49.754;6.106;2024-01-30T04:17:14;3.20;99.90
12726;DHT22;6427;49.754;6.106;2024-01-30T04:19:41;3.20;99.90
12726;DHT22;6427;49.754;6.106;2024-01-30T04:22:09;3.10;99.90
12726;DHT22;6427;49.754;6.106;2024-01-30T04:24:36;3.10;99.90
12726;DHT22;6427;49.754;6.106;2024-01-30T04:27:04;3.00;99.90
12726;DHT22;6427;49.754;6.106;2024-01-30T04:29:32;3.00;99.90
12726;DHT22;6427;49.754;6.106;2024-01-30T04:31:59;3.00;99.90
12726;DHT22;6427;49.754;6.106;2024-01-30T04:34:27;3.00;99.90
12726;DHT22;6427;49.754;6.106;2024-01-30T04:36:54;2.90;99.90
12726;DHT22;6427;49.754;6.106;2024-01-30T04:39:23;2.90;99.90
12726;DHT22;6427;49.754;6.106;2024-01-30T04:41:50;2.90;99.90
12726;DHT22;6427;49.754;6.106;2024-01-30T04:44:18;2.90;99.90
12726;DHT22;6427;49.754;6.106;2024-01-30T04:46:45;2.80;99.90
12726;DHT22;6427;49.754;6.106;2024-01-30T04:49:13;2.80;99.90
12726;DHT22;6427;49.754;6.106;2024-01-30T04:51:41;2.80;99.90
12726;DHT22;6427;49.754;6.106;2024-01-30T04:54:08;2.80;99.90
12726;DHT22;6427;49.754;6.106;2024-01-30T04:56:36;3.20;99.90
12726;DHT22;6427;49.754;6.106;2024-01-30T04:59:03;3.20;99.90
12726;DHT22;6427;49.754;6.106;2024-01-30T05:01:31;3.10;99.90
12726;DHT22;6427;49.754;6.106;2024-01-30T05:03:59;3.00;99.90
12726;DHT22;6427;49.754;6.106;2024-01-30T05:06:27;3.00;99.90
12726;DHT22;6427;49.754;6.106;2024-01-30T05:08:55;3.00;99.90
12726;DHT22;6427;49.754;6.106;2024-01-30T05:11:22;3.20;99.90
12726;DHT22;6427;49.754;6.106;2024-01-30T05:13:50;3.20;99.90
12726;DHT22;6427;49.754;6.106;2024-01-30T05:16:17;3.10;99.90
12726;DHT22;6427;49.754;6.106;2024-01-30T05:18:45;3.10;99.90
12726;DHT22;6427;49.754;6.106;2024-01-30T05:21:13;3.00;99.90
12726;DHT22;6427;49.754;6.106;2024-01-30T05:23:42;2.90;99.90
12726;DHT22;6427;49.754;6.106;2024-01-30T05:26:09;3.00;99.90
12726;DHT22;6427;49.754;6.106;2024-01-30T05:28:37;2.90;99.90
12726;DHT22;6427;49.754;6.106;2024-01-30T05:31:04;2.90;99.90
12726;DHT22;6427;49.754;6.106;2024-01-30T05:33:32;3.20;99.90
12726;DHT22;6427;49.754;6.106;2024-01-30T05:36:00;3.10;99.90
12726;DHT22;6427;49.754;6.106;2024-01-30T05:38:30;3.00;99.90
12726;DHT22;6427;49.754;6.106;2024-01-30T05:40:57;3.30;99.90
12726;DHT22;6427;49.754;6.106;2024-01-30T05:43:25;3.20;99.90
12726;DHT22;6427;49.754;6.106;2024-01-30T05:45:52;3.40;99.90
12726;DHT22;6427;49.754;6.106;2024-01-30T05:48:20;3.70;99.90
12726;DHT22;6427;49.754;6.106;2024-01-30T05:50:48;3.50;99.90
12726;DHT22;6427;49.754;6.106;2024-01-30T05:53:15;3.30;99.90
12726;DHT22;6427;49.754;6.106;2024-01-30T05:55:43;3.50;99.90
12726;DHT22;6427;49.754;6.106;2024-01-30T05:58:10;3.40;99.90
12726;DHT22;6427;49.754;6.106;2024-01-30T06:00:38;3.20;99.90
12726;DHT22;6427;49.754;6.106;2024-01-30T06:03:06;3.10;99.90
12726;DHT22;6427;49.754;6.106;2024-01-30T06:05:34;3.00;99.90
12726;DHT22;6427;49.754;6.106;2024-01-30T06:08:02;2.90;99.90
12726;DHT22;6427;49.754;6.106;2024-01-30T06:10:30;2.90;99.90
12726;DHT22;6427;49.754;6.106;2024-01-30T06:12:58;3.20;99.90
12726;DHT22;6427;49.754;6.106;2024-01-30T06:15:26;3.10;99.90
12726;DHT22;6427;49.754;6.106;2024-01-30T06:17:54;3.10;99.90
12726;DHT22;6427;49.754;6.106;2024-01-30T06:20:21;3.40;99.90
12726;DHT22;6427;49.754;6.106;2024-01-30T06:22:49;3.30;99.90
12726;DHT22;6427;49.754;6.106;2024-01-30T06:25:17;3.10;99.90
12726;DHT22;6427;49.754;6.106;2024-01-30T06:27:45;3.20;99.90
12726;DHT22;6427;49.754;6.106;2024-01-30T06:30:12;3.10;99.90
12726;DHT22;6427;49.754;6.106;2024-01-30T06:32:40;3.40;99.90
12726;DHT22;6427;49.754;6.106;2024-01-30T06:35:08;3.30;99.90
12726;DHT22;6427;49.754;6.106;2024-01-30T06:37:35;3.20;99.90
12726;DHT22;6427;49.754;6.106;2024-01-30T06:40:03;3.10;99.90
12726;DHT22;6427;49.754;6.106;2024-01-30T06:42:30;3.10;99.90
12726;DHT22;6427;49.754;6.106;2024-01-30T06:44:59;3.00;99.90
12726;DHT22;6427;49.754;6.106;2024-01-30T06:47:26;3.00;99.90
12726;DHT22;6427;49.754;6.106;2024-01-30T06:49:55;3.00;99.90
12726;DHT22;6427;49.754;6.106;2024-01-30T06:52:22;2.90;99.90
12726;DHT22;6427;49.754;6.106;2024-01-30T06:54:50;2.90;99.90
12726;DHT22;6427;49.754;6.106;2024-01-30T06:57:18;2.90;99.90
12726;DHT22;6427;49.754;6.106;2024-01-30T06:59:45;3.20;99.90
12726;DHT22;6427;49.754;6.106;2024-01-30T07:02:13;3.10;99.90
12726;DHT22;6427;49.754;6.106;2024-01-30T07:04:41;3.20;99.90
12726;DHT22;6427;49.754;6.106;2024-01-30T07:07:09;3.10;99.90
12726;DHT22;6427;49.754;6.106;2024-01-30T07:09:38;3.00;99.90
12726;DHT22;6427;49.754;6.106;2024-01-30T07:12:05;3.00;99.90
12726;DHT22;6427;49.754;6.106;2024-01-30T07:14:33;2.90;99.90
12726;DHT22;6427;49.754;6.106;2024-01-30T07:17:01;2.80;99.90
12726;DHT22;6427;49.754;6.106;2024-01-30T07:19:29;3.10;99.90
12726;DHT22;6427;49.754;6.106;2024-01-30T07:21:57;3.10;99.90
12726;DHT22;6427;49.754;6.106;2024-01-30T07:24:25;3.30;99.90
12726;DHT22;6427;49.754;6.106;2024-01-30T07:26:53;3.20;99.90
12726;DHT22;6427;49.754;6.106;2024-01-30T07:29:20;3.10;99.90
12726;DHT22;6427;49.754;6.106;2024-01-30T07:31:48;3.00;99.90
12726;DHT22;6427;49.754;6.106;2024-01-30T07:34:15;3.00;99.90
12726;DHT22;6427;49.754;6.106;2024-01-30T07:36:43;2.90;99.90
12726;DHT22;6427;49.754;6.106;2024-01-30T07:39:11;2.90;99.90
12726;DHT22;6427;49.754;6.106;2024-01-30T07:41:38;2.90;99.90
12726;DHT22;6427;49.754;6.106;2024-01-30T07:44:06;2.90;99.90
12726;DHT22;6427;49.754;6.106;2024-01-30T07:46:34;2.80;99.90
12726;DHT22;6427;49.754;6.106;2024-01-30T07:49:02;2.80;99.90
12726;DHT22;6427;49.754;6.106;2024-01-30T07:51:29;2.80;99.90
12726;DHT22;6427;49.754;6.106;2024-01-30T07:53:57;2.80;99.90
12726;DHT22;6427;49.754;6.106;2024-01-30T07:56:25;3.10;99.90
12726;DHT22;6427;49.754;6.106;2024-01-30T07:58:54;3.10;99.90
12726;DHT22;6427;49.754;6.106;2024-01-30T08:01:21;3.10;99.90
12726;DHT22;6427;49.754;6.106;2024-01-30T08:03:49;3.10;99.90
12726;DHT22;6427;49.754;6.106;2024-01-30T08:06:16;3.40;99.90
12726;DHT22;6427;49.754;6.106;2024-01-30T08:08:44;3.40;99.90
12726;DHT22;6427;49.754;6.106;2024-01-30T08:11:12;3.30;99.90
12726;DHT22;6427;49.754;6.106;2024-01-30T08:13:40;3.30;99.90
12726;DHT22;6427;49.754;6.106;2024-01-30T08:16:07;3.30;99.90
12726;DHT22;6427;49.754;6.106;2024-01-30T08:18:35;3.60;99.90
12726;DHT22;6427;49.754;6.106;2024-01-30T08:21:03;3.60;99.90
12726;DHT22;6427;49.754;6.106;2024-01-30T08:23:30;3.50;99.90
12726;DHT22;6427;49.754;6.106;2024-01-30T08:25:59;3.50;99.90
12726;DHT22;6427;49.754;6.106;2024-01-30T08:28:27;3.50;99.90
12726;DHT22;6427;49.754;6.106;2024-01-30T08:30:55;3.50;99.90
12726;DHT22;6427;49.754;6.106;2024-01-30T08:33:22;3.50;99.90
12726;DHT22;6427;49.754;6.106;2024-01-30T08:35:51;3.50;99.90
12726;DHT22;6427;49.754;6.106;2024-01-30T08:38:19;3.50;99.90
12726;DHT22;6427;49.754;6.106;2024-01-30T08:40:46;3.50;99.90
12726;DHT22;6427;49.754;6.106;2024-01-30T08:43:15;3.50;99.90
12726;DHT22;6427;49.754;6.106;2024-01-30T08:45:42;3.50;99.90
12726;DHT22;6427;49.754;6.106;2024-01-30T08:48:11;3.50;99.90
12726;DHT22;6427;49.754;6.106;2024-01-30T08:50:38;3.50;99.90
12726;DHT22;6427;49.754;6.106;2024-01-30T08:53:07;3.50;99.90
12726;DHT22;6427;49.754;6.106;2024-01-30T08:55:34;3.50;99.90
12726;DHT22;6427;49.754;6.106;2024-01-30T08:58:02;3.50;99.90
12726;DHT22;6427;49.754;6.106;2024-01-30T09:00:30;3.60;99.90
12726;DHT22;6427;49.754;6.106;2024-01-30T09:02:58;4.00;99.90
12726;DHT22;6427;49.754;6.106;2024-01-30T09:05:25;3.90;99.90
12726;DHT22;6427;49.754;6.106;2024-01-30T09:07:54;3.90;99.90
12726;DHT22;6427;49.754;6.106;2024-01-30T09:10:21;3.90;99.90
12726;DHT22;6427;49.754;6.106;2024-01-30T09:12:49;4.00;99.90
12726;DHT22;6427;49.754;6.106;2024-01-30T09:15:17;4.00;99.90
12726;DHT22;6427;49.754;6.106;2024-01-30T09:17:47;4.00;99.90
12726;DHT22;6427;49.754;6.106;2024-01-30T09:20:14;4.30;99.90
12726;DHT22;6427;49.754;6.106;2024-01-30T09:22:42;4.30;99.90
12726;DHT22;6427;49.754;6.106;2024-01-30T09:25:10;4.20;99.90
12726;DHT22;6427;49.754;6.106;2024-01-30T09:27:37;4.10;99.90
12726;DHT22;6427;49.754;6.106;2024-01-30T09:30:05;4.50;99.90
12726;DHT22;6427;49.754;6.106;2024-01-30T09:32:33;4.40;99.90
12726;DHT22;6427;49.754;6.106;2024-01-30T09:35:00;4.40;99.90
12726;DHT22;6427;49.754;6.106;2024-01-30T09:37:29;4.70;99.90
12726;DHT22;6427;49.754;6.106;2024-01-30T09:39:56;4.70;99.90
12726;DHT22;6427;49.754;6.106;2024-01-30T09:42:26;4.70;99.90
12726;DHT22;6427;49.754;6.106;2024-01-30T09:44:52;4.70;99.90
12726;DHT22;6427;49.754;6.106;2024-01-30T09:47:21;4.60;99.90
12726;DHT22;6427;49.754;6.106;2024-01-30T09:49:48;4.60;99.90
12726;DHT22;6427;49.754;6.106;2024-01-30T09:52:16;5.00;99.90
12726;DHT22;6427;49.754;6.106;2024-01-30T09:54:43;4.90;99.90
12726;DHT22;6427;49.754;6.106;2024-01-30T09:57:11;4.80;99.90
12726;DHT22;6427;49.754;6.106;2024-01-30T09:59:39;4.70;99.90
12726;DHT22;6427;49.754;6.106;2024-01-30T10:02:07;4.70;99.90
12726;DHT22;6427;49.754;6.106;2024-01-30T10:04:35;4.70;99.90
12726;DHT22;6427;49.754;6.106;2024-01-30T10:07:03;4.70;99.90
12726;DHT22;6427;49.754;6.106;2024-01-30T10:09:34;5.00;99.90
12726;DHT22;6427;49.754;6.106;2024-01-30T10:12:01;5.00;99.90
12726;DHT22;6427;49.754;6.106;2024-01-30T10:14:29;5.00;99.90
12726;DHT22;6427;49.754;6.106;2024-01-30T10:17:00;5.00;99.90
12726;DHT22;6427;49.754;6.106;2024-01-30T10:19:24;5.00;99.90
12726;DHT22;6427;49.754;6.106;2024-01-30T10:21:52;5.30;99.90
12726;DHT22;6427;49.754;6.106;2024-01-30T10:24:23;5.30;99.90
12726;DHT22;6427;49.754;6.106;2024-01-30T10:26:47;5.30;99.90
12726;DHT22;6427;49.754;6.106;2024-01-30T10:29:15;5.70;99.90
12726;DHT22;6427;49.754;6.106;2024-01-30T10:31:43;5.70;99.90
12726;DHT22;6427;49.754;6.106;2024-01-30T10:34:11;5.70;99.90
12726;DHT22;6427;49.754;6.106;2024-01-30T10:36:43;5.70;99.90
12726;DHT22;6427;49.754;6.106;2024-01-30T10:39:10;5.80;99.90
12726;DHT22;6427;49.754;6.106;2024-01-30T10:41:44;6.20;99.90
12726;DHT22;6427;49.754;6.106;2024-01-30T10:44:11;6.20;99.90
12726;DHT22;6427;49.754;6.106;2024-01-30T10:46:39;6.20;99.90
12726;DHT22;6427;49.754;6.106;2024-01-30T10:49:06;6.20;99.90
12726;DHT22;6427;49.754;6.106;2024-01-30T10:51:35;6.30;99.90
12726;DHT22;6427;49.754;6.106;2024-01-30T10:54:02;6.30;99.90
12726;DHT22;6427;49.754;6.106;2024-01-30T10:56:30;6.40;99.90
12726;DHT22;6427;49.754;6.106;2024-01-30T10:58:58;6.40;99.90
12726;DHT22;6427;49.754;6.106;2024-01-30T11:01:26;6.50;99.90
12726;DHT22;6427;49.754;6.106;2024-01-30T11:03:53;6.90;99.90
12726;DHT22;6427;49.754;6.106;2024-01-30T11:06:24;6.90;99.90
12726;DHT22;6427;49.754;6.106;2024-01-30T11:09:04;6.80;99.90
12726;DHT22;6427;49.754;6.106;2024-01-30T11:11:55;6.80;99.90
12726;DHT22;6427;49.754;6.106;2024-01-30T11:14:29;7.20;99.90
12726;DHT22;6427;49.754;6.106;2024-01-30T11:16:53;7.50;99.90
12726;DHT22;6427;49.754;6.106;2024-01-30T11:19:24;7.60;99.90
12726;DHT22;6427;49.754;6.106;2024-01-30T11:21:55;7.60;99.90
12726;DHT22;6427;49.754;6.106;2024-01-30T11:24:24;7.60;99.90
12726;DHT22;6427;49.754;6.106;2024-01-30T11:26:57;7.50;99.90
12726;DHT22;6427;49.754;6.106;2024-01-30T11:29:26;7.50;99.90
12726;DHT22;6427;49.754;6.106;2024-01-30T11:31:57;7.50;99.90
12726;DHT22;6427;49.754;6.106;2024-01-30T11:34:24;7.60;99.90
12726;DHT22;6427;49.754;6.106;2024-01-30T11:36:59;7.60;99.90
12726;DHT22;6427;49.754;6.106;2024-01-30T11:39:31;7.70;99.90
12726;DHT22;6427;49.754;6.106;2024-01-30T11:41:58;7.70;99.90
12726;DHT22;6427;49.754;6.106;2024-01-30T11:44:27;7.90;99.90
12726;DHT22;6427;49.754;6.106;2024-01-30T11:46:54;7.80;99.90
12726;DHT22;6427;49.754;6.106;2024-01-30T11:49:22;8.30;99.90
12726;DHT22;6427;49.754;6.106;2024-01-30T11:51:49;8.40;99.90
12726;DHT22;6427;49.754;6.106;2024-01-30T11:54:17;8.50;99.90
12726;DHT22;6427;49.754;6.106;2024-01-30T11:56:45;8.60;99.90
12726;DHT22;6427;49.754;6.106;2024-01-30T11:59:13;8.70;99.90
12726;DHT22;6427;49.754;6.106;2024-01-30T12:01:41;8.80;99.90
12726;DHT22;6427;49.754;6.106;2024-01-30T12:04:08;9.20;99.90
12726;DHT22;6427;49.754;6.106;2024-01-30T12:06:37;9.30;99.90
12726;DHT22;6427;49.754;6.106;2024-01-30T12:09:04;9.20;99.90
12726;DHT22;6427;49.754;6.106;2024-01-30T12:11:32;9.30;99.90
12726;DHT22;6427;49.754;6.106;2024-01-30T12:13:59;9.40;99.90
12726;DHT22;6427;49.754;6.106;2024-01-30T12:16:27;9.50;99.90
12726;DHT22;6427;49.754;6.106;2024-01-30T12:19:00;9.50;99.90
12726;DHT22;6427;49.754;6.106;2024-01-30T12:21:28;9.60;99.90
12726;DHT22;6427;49.754;6.106;2024-01-30T12:23:59;9.70;99.90
12726;DHT22;6427;49.754;6.106;2024-01-30T12:26:26;9.70;99.90
12726;DHT22;6427;49.754;6.106;2024-01-30T12:28:56;9.80;99.90
12726;DHT22;6427;49.754;6.106;2024-01-30T12:31:31;9.80;99.90
12726;DHT22;6427;49.754;6.106;2024-01-30T12:33:58;9.90;99.90
12726;DHT22;6427;49.754;6.106;2024-01-30T12:36:24;10.00;99.90
12726;DHT22;6427;49.754;6.106;2024-01-30T12:38:52;10.10;99.90
12726;DHT22;6427;49.754;6.106;2024-01-30T12:41:20;10.10;99.90
12726;DHT22;6427;49.754;6.106;2024-01-30T12:43:47;10.20;99.90
12726;DHT22;6427;49.754;6.106;2024-01-30T12:46:16;10.20;99.90
12726;DHT22;6427;49.754;6.106;2024-01-30T12:48:42;10.70;99.90
12726;DHT22;6427;49.754;6.106;2024-01-30T12:51:10;10.60;99.90
12726;DHT22;6427;49.754;6.106;2024-01-30T12:53:37;10.50;99.90
12726;DHT22;6427;49.754;6.106;2024-01-30T12:56:05;10.50;99.90
12726;DHT22;6427;49.754;6.106;2024-01-30T12:58:33;10.50;99.90
12726;DHT22;6427;49.754;6.106;2024-01-30T13:01:00;10.50;99.90
12726;DHT22;6427;49.754;6.106;2024-01-30T13:03:28;10.50;99.90
12726;DHT22;6427;49.754;6.106;2024-01-30T13:05:56;10.90;99.90
12726;DHT22;6427;49.754;6.106;2024-01-30T13:08:25;10.90;99.90
12726;DHT22;6427;49.754;6.106;2024-01-30T13:10:53;10.90;99.90
12726;DHT22;6427;49.754;6.106;2024-01-30T13:13:20;10.90;99.90
12726;DHT22;6427;49.754;6.106;2024-01-30T13:15:48;10.90;99.90
12726;DHT22;6427;49.754;6.106;2024-01-30T13:18:16;11.20;99.90
12726;DHT22;6427;49.754;6.106;2024-01-30T13:20:44;11.20;99.90
12726;DHT22;6427;49.754;6.106;2024-01-30T13:23:12;11.20;99.90
12726;DHT22;6427;49.754;6.106;2024-01-30T13:25:40;11.20;99.90
12726;DHT22;6427;49.754;6.106;2024-01-30T13:28:08;11.60;99.90
12726;DHT22;6427;49.754;6.106;2024-01-30T13:30:37;11.50;99.90
12726;DHT22;6427;49.754;6.106;2024-01-30T13:33:04;11.50;99.90
12726;DHT22;6427;49.754;6.106;2024-01-30T13:35:32;11.50;99.90
12726;DHT22;6427;49.754;6.106;2024-01-30T13:38:00;11.50;99.90
12726;DHT22;6427;49.754;6.106;2024-01-30T13:40:28;11.80;99.90
12726;DHT22;6427;49.754;6.106;2024-01-30T13:42:56;11.80;99.90
12726;DHT22;6427;49.754;6.106;2024-01-30T13:45:23;11.80;99.90
12726;DHT22;6427;49.754;6.106;2024-01-30T13:47:51;11.70;99.90
12726;DHT22;6427;49.754;6.106;2024-01-30T13:50:18;12.10;99.90
12726;DHT22;6427;49.754;6.106;2024-01-30T13:52:47;11.90;99.90
12726;DHT22;6427;49.754;6.106;2024-01-30T13:55:16;11.90;99.90
12726;DHT22;6427;49.754;6.106;2024-01-30T13:57:43;11.90;99.90
12726;DHT22;6427;49.754;6.106;2024-01-30T14:00:11;11.90;99.90
12726;DHT22;6427;49.754;6.106;2024-01-30T14:02:38;11.90;99.90
12726;DHT22;6427;49.754;6.106;2024-01-30T14:05:06;11.90;99.90
12726;DHT22;6427;49.754;6.106;2024-01-30T14:07:35;12.20;99.90
12726;DHT22;6427;49.754;6.106;2024-01-30T14:10:02;12.20;99.90
12726;DHT22;6427;49.754;6.106;2024-01-30T14:12:30;12.50;99.90
12726;DHT22;6427;49.754;6.106;2024-01-30T14:14:58;12.40;99.90
12726;DHT22;6427;49.754;6.106;2024-01-30T14:17:25;12.30;99.90
12726;DHT22;6427;49.754;6.106;2024-01-30T14:19:53;12.30;99.90
12726;DHT22;6427;49.754;6.106;2024-01-30T14:22:21;12.50;99.90
12726;DHT22;6427;49.754;6.106;2024-01-30T14:24:48;12.40;99.90
12726;DHT22;6427;49.754;6.106;2024-01-30T14:27:17;12.30;99.90
12726;DHT22;6427;49.754;6.106;2024-01-30T14:29:45;12.20;99.90
12726;DHT22;6427;49.754;6.106;2024-01-30T14:32:13;12.20;99.90
12726;DHT22;6427;49.754;6.106;2024-01-30T14:34:40;12.20;99.90
12726;DHT22;6427;49.754;6.106;2024-01-30T14:37:09;12.80;99.90
12726;DHT22;6427;49.754;6.106;2024-01-30T14:39:36;12.70;99.90
12726;DHT22;6427;49.754;6.106;2024-01-30T14:42:04;12.60;99.90
12726;DHT22;6427;49.754;6.106;2024-01-30T14:44:31;12.50;99.90
12726;DHT22;6427;49.754;6.106;2024-01-30T14:46:59;12.80;99.90
12726;DHT22;6427;49.754;6.106;2024-01-30T14:49:27;12.60;99.90
12726;DHT22;6427;49.754;6.106;2024-01-30T14:51:55;12.50;99.90
12726;DHT22;6427;49.754;6.106;2024-01-30T14:54:23;12.40;99.90
12726;DHT22;6427;49.754;6.106;2024-01-30T14:56:51;12.40;99.90
12726;DHT22;6427;49.754;6.106;2024-01-30T14:59:18;12.30;99.90
12726;DHT22;6427;49.754;6.106;2024-01-30T15:01:46;12.30;99.90
12726;DHT22;6427;49.754;6.106;2024-01-30T15:04:14;12.30;99.90
12726;DHT22;6427;49.754;6.106;2024-01-30T15:06:41;12.60;99.90
12726;DHT22;6427;49.754;6.106;2024-01-30T15:09:10;12.70;99.90
12726;DHT22;6427;49.754;6.106;2024-01-30T15:11:37;12.70;99.90
12726;DHT22;6427;49.754;6.106;2024-01-30T15:14:05;12.60;99.90
12726;DHT22;6427;49.754;6.106;2024-01-30T15:16:32;12.40;99.90
12726;DHT22;6427;49.754;6.106;2024-01-30T15:19:00;12.40;99.90
12726;DHT22;6427;49.754;6.106;2024-01-30T15:21:28;12.30;99.90
12726;DHT22;6427;49.754;6.106;2024-01-30T15:23:55;12.60;99.90
12726;DHT22;6427;49.754;6.106;2024-01-30T15:26:24;12.40;99.90
12726;DHT22;6427;49.754;6.106;2024-01-30T15:28:51;12.40;99.90
12726;DHT22;6427;49.754;6.106;2024-01-30T15:31:19;12.40;99.90
12726;DHT22;6427;49.754;6.106;2024-01-30T15:33:47;12.50;99.90
12726;DHT22;6427;49.754;6.106;2024-01-30T15:36:15;12.50;99.90
12726;DHT22;6427;49.754;6.106;2024-01-30T15:38:42;12.50;99.90
12726;DHT22;6427;49.754;6.106;2024-01-30T15:41:10;12.40;99.90
12726;DHT22;6427;49.754;6.106;2024-01-30T15:43:38;12.40;99.90
12726;DHT22;6427;49.754;6.106;2024-01-30T15:46:05;12.30;99.90
12726;DHT22;6427;49.754;6.106;2024-01-30T15:48:34;12.60;99.90
12726;DHT22;6427;49.754;6.106;2024-01-30T15:51:02;12.50;99.90
12726;DHT22;6427;49.754;6.106;2024-01-30T15:53:30;12.50;99.90
12726;DHT22;6427;49.754;6.106;2024-01-30T15:55:57;12.40;99.90
12726;DHT22;6427;49.754;6.106;2024-01-30T15:58:25;12.40;99.90
12726;DHT22;6427;49.754;6.106;2024-01-30T16:00:52;12.40;99.90